Terminal Aerodrome Forecast
Issued by NWS Medford, OR

Home | Current Version | Previous Version | Text Only | Print | Product List | Glossary On
Versions: 1 2 3 4 5 6 7 8 9 10 11 12 13 14
680
FTUS46 KMFR 101138
TAFMFR
TAF
KMFR 101138Z 1012/1112 00000KT P6SM SKC
     FM101800 VRB03KT P6SM FEW060 BKN250
     FM110000 36003KT P6SM FEW080 SCT100 OVC120=

USA.gov is the U.S. government's official web portal to all federal, state and local government web resources and services.